SGU weather

St George Municipal Airport
St George, Utah, United States

Public forecast

Using degrees Fahrenheit for public forecast. Weather courtesy of forecast.io.

METAR (pilot weather report)

Retrieved 2018/09/21 18:56 UTC (44 minutes ago):

KSGU 211856Z AUTO 00000KT 10SM CLR 27/M04 A3011 RMK AO2 SLP164 T02721039

TAF (pilot weather forecast)

Retrieved 2018/09/21 18:39 UTC (1 hour ago):

TAF KSGU 211736Z 2118/2218 VRB05KT P6SM SKC FM212000 30008KT P6SM SKC FM220300 VRB04KT P6SM SKC